Portada
METAR-TAF:

METAR-TAF

Aeroports :

Marsella, França

latitud: 43-27N, longitud: 005-14E, altitud: 6 m

Observació

L'informe es va fer fa 35 minuts, a les 01:30 UTC
Vent 5 kt del Sud-Est
Temperatura 20°C
Humitat 83%
Pressió 1016 hPa
Visibilitat 10 km o més
sense núvols per sota de 1500 mi sense presència de cumulonimbus.

METAR: LFML 200130Z AUTO 13005KT CAVOK 20/17 Q1016 NOSIG

Hora: 04:05 (02:05 UTC)

Pronòstic

L'informe es va fer fa 6 hores i 5 minuts, a les 20:00 UTC
Pronòstic vàlid del 19 a les 21 UTC al 21 a les 03 UTC
Vent 3 kt amb direcció variable
Visibilitat 10 km o més
sense núvols per sota de 1500 mi sense presència de cumulonimbus.
Temporalment
l' 20 a les 11 UTC al 20 a les 17 UTC
Vent 12 kt del Sud/Sud-Oest

TAF: LFML 192000Z 1921/2103 VRB03KT CAVOK TEMPO 2011/2017 20012KT

Observacions i pronòstics meteorològics de més de 4000 aeroports (METAR i TAF).

Les estacions disponibles són els punts grocs i vermells al mapa.

Posi el ratolí al punt desitjat per veure el nom de l'estació.

Feu clic per veure les observacions i els pronòstics meteorològics.

Per canviar el mapa: feu clic els botons verds amb una creu de color negre per apropar; al botó verd amb un guió per allunyar la imatge; o en les fletxes verdes per a mapes adjacents.


METAR-TAF: